sensor_id;sensor_type;location;lat;lon;timestamp;pressure;altitude;pressure_sealevel;temperature;humidity
7180;BME280;3631;42.152;24.756;2022-12-10T00:00:28;98952.94;;;9.25;100.00
7180;BME280;3631;42.152;24.756;2022-12-10T00:02:56;98966.06;;;9.19;100.00
7180;BME280;3631;42.152;24.756;2022-12-10T00:05:23;98950.00;;;9.09;100.00
7180;BME280;3631;42.152;24.756;2022-12-10T00:07:50;98947.19;;;9.15;100.00
7180;BME280;3631;42.152;24.756;2022-12-10T00:10:17;98946.41;;;9.13;100.00
7180;BME280;3631;42.152;24.756;2022-12-10T00:12:44;98938.31;;;9.24;100.00
7180;BME280;3631;42.152;24.756;2022-12-10T00:15:11;98935.53;;;9.28;100.00
7180;BME280;3631;42.152;24.756;2022-12-10T00:17:38;98937.19;;;9.04;100.00
7180;BME280;3631;42.152;24.756;2022-12-10T00:20:08;98942.97;;;9.13;100.00
7180;BME280;3631;42.152;24.756;2022-12-10T00:22:35;98945.75;;;9.06;100.00
7180;BME280;3631;42.152;24.756;2022-12-10T00:25:02;98946.59;;;9.07;100.00
7180;BME280;3631;42.152;24.756;2022-12-10T00:27:30;98944.69;;;9.14;100.00
7180;BME280;3631;42.152;24.756;2022-12-10T00:29:57;98942.97;;;9.13;100.00
7180;BME280;3631;42.152;24.756;2022-12-10T00:32:24;98957.16;;;9.01;100.00
7180;BME280;3631;42.152;24.756;2022-12-10T00:34:51;98947.50;;;9.06;100.00
7180;BME280;3631;42.152;24.756;2022-12-10T00:37:19;98944.81;;;9.09;100.00
7180;BME280;3631;42.152;24.756;2022-12-10T00:39:46;98938.56;;;9.15;100.00
7180;BME280;3631;42.152;24.756;2022-12-10T00:42:13;98948.13;;;9.14;100.00
7180;BME280;3631;42.152;24.756;2022-12-10T00:44:40;98965.44;;;9.12;100.00
7180;BME280;3631;42.152;24.756;2022-12-10T00:47:06;98944.91;;;9.06;100.00
7180;BME280;3631;42.152;24.756;2022-12-10T00:49:33;98957.03;;;9.04;100.00
7180;BME280;3631;42.152;24.756;2022-12-10T00:52:00;98943.13;;;9.08;100.00
7180;BME280;3631;42.152;24.756;2022-12-10T00:54:28;98930.44;;;9.00;100.00
7180;BME280;3631;42.152;24.756;2022-12-10T00:56:55;98937.19;;;9.04;100.00
7180;BME280;3631;42.152;24.756;2022-12-10T00:59:22;98950.47;;;8.94;100.00
7180;BME280;3631;42.152;24.756;2022-12-10T01:01:49;98929.81;;;8.92;100.00
7180;BME280;3631;42.152;24.756;2022-12-10T01:04:17;98936.72;;;8.92;100.00
7180;BME280;3631;42.152;24.756;2022-12-10T01:06:46;98938.31;;;8.96;100.00
7180;BME280;3631;42.152;24.756;2022-12-10T01:09:15;98932.31;;;8.95;100.00
7180;BME280;3631;42.152;24.756;2022-12-10T01:11:45;98924.94;;;9.09;100.00
7180;BME280;3631;42.152;24.756;2022-12-10T01:14:15;98927.41;;;9.14;100.00
7180;BME280;3631;42.152;24.756;2022-12-10T01:16:43;98930.31;;;9.03;100.00
7180;BME280;3631;42.152;24.756;2022-12-10T01:19:11;98905.56;;;8.95;100.00
7180;BME280;3631;42.152;24.756;2022-12-10T01:21:38;98916.44;;;8.80;100.00
7180;BME280;3631;42.152;24.756;2022-12-10T01:24:06;98919.56;;;8.89;100.00
7180;BME280;3631;42.152;24.756;2022-12-10T01:26:34;98914.91;;;9.00;100.00
7180;BME280;3631;42.152;24.756;2022-12-10T01:29:03;98911.63;;;8.94;100.00
7180;BME280;3631;42.152;24.756;2022-12-10T01:31:32;98914.84;;;9.02;100.00
7180;BME280;3631;42.152;24.756;2022-12-10T01:34:00;98896.75;;;9.02;100.00
7180;BME280;3631;42.152;24.756;2022-12-10T01:36:29;98889.41;;;8.88;100.00
7180;BME280;3631;42.152;24.756;2022-12-10T01:38:59;98904.69;;;8.96;100.00
7180;BME280;3631;42.152;24.756;2022-12-10T01:41:28;98890.72;;;9.01;100.00
7180;BME280;3631;42.152;24.756;2022-12-10T01:43:57;98880.50;;;8.97;100.00
7180;BME280;3631;42.152;24.756;2022-12-10T01:46:28;98890.44;;;9.09;100.00
7180;BME280;3631;42.152;24.756;2022-12-10T01:48:55;98897.72;;;8.98;100.00
7180;BME280;3631;42.152;24.756;2022-12-10T01:51:25;98880.50;;;8.97;100.00
7180;BME280;3631;42.152;24.756;2022-12-10T01:53:53;98876.50;;;8.87;100.00
7180;BME280;3631;42.152;24.756;2022-12-10T01:56:21;98871.84;;;8.98;100.00
7180;BME280;3631;42.152;24.756;2022-12-10T01:58:50;98862.34;;;8.98;100.00
7180;BME280;3631;42.152;24.756;2022-12-10T02:01:24;98869.16;;;9.01;100.00
7180;BME280;3631;42.152;24.756;2022-12-10T02:04:02;98875.88;;;9.06;100.00
7180;BME280;3631;42.152;24.756;2022-12-10T02:06:43;98871.13;;;8.93;100.00
7180;BME280;3631;42.152;24.756;2022-12-10T02:09:18;98863.47;;;8.90;100.00
7180;BME280;3631;42.152;24.756;2022-12-10T02:11:51;98871.34;;;8.87;100.00
7180;BME280;3631;42.152;24.756;2022-12-10T02:14:29;98866.16;;;8.87;100.00
7180;BME280;3631;42.152;24.756;2022-12-10T02:17:03;98859.94;;;8.92;100.00
7180;BME280;3631;42.152;24.756;2022-12-10T02:19:43;98854.75;;;8.92;100.00
7180;BME280;3631;42.152;24.756;2022-12-10T02:22:13;98858.13;;;8.94;100.00
7180;BME280;3631;42.152;24.756;2022-12-10T02:24:41;98863.38;;;8.93;100.00
7180;BME280;3631;42.152;24.756;2022-12-10T02:27:13;98879.78;;;8.92;100.00
7180;BME280;3631;42.152;24.756;2022-12-10T02:29:44;98867.66;;;8.94;100.00
7180;BME280;3631;42.152;24.756;2022-12-10T02:32:16;98859.84;;;8.95;100.00
7180;BME280;3631;42.152;24.756;2022-12-10T02:34:48;98878.63;;;9.02;100.00
7180;BME280;3631;42.152;24.756;2022-12-10T02:37:20;98881.22;;;9.02;100.00
7180;BME280;3631;42.152;24.756;2022-12-10T02:39:51;98868.94;;;8.81;100.00
7180;BME280;3631;42.152;24.756;2022-12-10T02:42:22;98869.69;;;8.84;100.00
7180;BME280;3631;42.152;24.756;2022-12-10T02:44:53;98877.50;;;8.83;100.00
7180;BME280;3631;42.152;24.756;2022-12-10T02:47:21;98883.28;;;8.91;100.00
7180;BME280;3631;42.152;24.756;2022-12-10T02:49:51;98877.16;;;8.93;100.00
7180;BME280;3631;42.152;24.756;2022-12-10T02:52:20;98883.72;;;9.03;100.00
7180;BME280;3631;42.152;24.756;2022-12-10T02:54:48;98867.56;;;8.97;100.00
7180;BME280;3631;42.152;24.756;2022-12-10T02:57:23;98870.00;;;9.01;100.00
7180;BME280;3631;42.152;24.756;2022-12-10T03:00:03;98858.94;;;8.96;100.00
7180;BME280;3631;42.152;24.756;2022-12-10T03:02:39;98854.53;;;9.00;100.00
7180;BME280;3631;42.152;24.756;2022-12-10T03:05:14;98859.00;;;8.95;100.00
7180;BME280;3631;42.152;24.756;2022-12-10T03:07:49;98840.16;;;8.91;100.00
7180;BME280;3631;42.152;24.756;2022-12-10T03:10:24;98860.63;;;8.97;100.00
7180;BME280;3631;42.152;24.756;2022-12-10T03:12:55;98864.25;;;8.92;100.00
7180;BME280;3631;42.152;24.756;2022-12-10T03:15:27;98863.97;;;9.01;100.00
7180;BME280;3631;42.152;24.756;2022-12-10T03:17:55;98859.88;;;8.94;100.00
7180;BME280;3631;42.152;24.756;2022-12-10T03:20:24;98840.28;;;8.87;100.00
7180;BME280;3631;42.152;24.756;2022-12-10T03:22:51;98847.69;;;8.97;100.00
7180;BME280;3631;42.152;24.756;2022-12-10T03:25:24;98838.19;;;8.98;100.00
7180;BME280;3631;42.152;24.756;2022-12-10T03:27:54;98838.28;;;8.95;100.00
7180;BME280;3631;42.152;24.756;2022-12-10T03:30:22;98847.06;;;8.91;100.00
7180;BME280;3631;42.152;24.756;2022-12-10T03:32:51;98856.19;;;8.74;100.00
7180;BME280;3631;42.152;24.756;2022-12-10T03:35:20;98841.38;;;8.80;100.00
7180;BME280;3631;42.152;24.756;2022-12-10T03:37:48;98833.75;;;8.75;100.00
7180;BME280;3631;42.152;24.756;2022-12-10T03:40:16;98837.88;;;8.81;100.00
7180;BME280;3631;42.152;24.756;2022-12-10T03:42:44;98835.13;;;8.87;100.00
7180;BME280;3631;42.152;24.756;2022-12-10T03:45:11;98834.13;;;8.91;100.00
7180;BME280;3631;42.152;24.756;2022-12-10T03:47:39;98824.44;;;8.96;100.00
7180;BME280;3631;42.152;24.756;2022-12-10T03:50:09;98807.28;;;8.93;100.00
7180;BME280;3631;42.152;24.756;2022-12-10T03:52:36;98814.69;;;9.04;100.00
7180;BME280;3631;42.152;24.756;2022-12-10T03:55:04;98812.94;;;9.04;100.00
7180;BME280;3631;42.152;24.756;2022-12-10T03:57:32;98819.09;;;9.02;100.00
7180;BME280;3631;42.152;24.756;2022-12-10T03:59:59;98812.50;;;8.92;100.00
7180;BME280;3631;42.152;24.756;2022-12-10T04:02:25;98804.59;;;8.96;100.00
7180;BME280;3631;42.152;24.756;2022-12-10T04:04:52;98813.91;;;9.02;100.00
7180;BME280;3631;42.152;24.756;2022-12-10T04:07:21;98829.53;;;8.99;100.00
7180;BME280;3631;42.152;24.756;2022-12-10T04:09:48;98818.34;;;8.98;100.00
7180;BME280;3631;42.152;24.756;2022-12-10T04:12:15;98833.16;;;8.93;100.00
7180;BME280;3631;42.152;24.756;2022-12-10T04:14:42;98830.47;;;8.96;100.00
7180;BME280;3631;42.152;24.756;2022-12-10T04:17:26;98833.09;;;8.95;100.00
7180;BME280;3631;42.152;24.756;2022-12-10T04:19:53;98839.44;;;8.86;100.00
7180;BME280;3631;42.152;24.756;2022-12-10T04:22:21;98818.19;;;8.77;100.00
7180;BME280;3631;42.152;24.756;2022-12-10T04:25:06;98807.81;;;8.78;100.00
7180;BME280;3631;42.152;24.756;2022-12-10T04:27:47;98795.53;;;8.83;100.00
7180;BME280;3631;42.152;24.756;2022-12-10T04:30:14;98825.59;;;8.87;100.00
7180;BME280;3631;42.152;24.756;2022-12-10T04:32:41;98842.97;;;8.84;100.00
7180;BME280;3631;42.152;24.756;2022-12-10T04:35:08;98818.94;;;8.80;100.00
7180;BME280;3631;42.152;24.756;2022-12-10T04:37:37;98830.88;;;8.84;100.00
7180;BME280;3631;42.152;24.756;2022-12-10T04:40:05;98828.47;;;8.80;100.00
7180;BME280;3631;42.152;24.756;2022-12-10T04:42:32;98812.13;;;8.78;100.00
7180;BME280;3631;42.152;24.756;2022-12-10T04:44:59;98834.16;;;8.89;100.00
7180;BME280;3631;42.152;24.756;2022-12-10T04:47:26;98829.72;;;8.93;100.00
7180;BME280;3631;42.152;24.756;2022-12-10T04:49:53;98829.00;;;8.89;100.00
7180;BME280;3631;42.152;24.756;2022-12-10T04:52:20;98829.19;;;8.83;100.00
7180;BME280;3631;42.152;24.756;2022-12-10T04:54:48;98828.50;;;8.78;100.00
7180;BME280;3631;42.152;24.756;2022-12-10T04:57:15;98829.97;;;8.85;100.00
7180;BME280;3631;42.152;24.756;2022-12-10T04:59:42;98810.38;;;8.78;100.00
7180;BME280;3631;42.152;24.756;2022-12-10T05:02:09;98811.63;;;8.66;100.00
7180;BME280;3631;42.152;24.756;2022-12-10T05:04:36;98811.50;;;8.69;100.00
7180;BME280;3631;42.152;24.756;2022-12-10T05:07:03;98807.84;;;8.77;100.00
7180;BME280;3631;42.152;24.756;2022-12-10T05:09:29;98814.59;;;8.81;100.00
7180;BME280;3631;42.152;24.756;2022-12-10T05:11:58;98809.09;;;8.91;100.00
7180;BME280;3631;42.152;24.756;2022-12-10T05:14:25;98817.31;;;8.78;100.00
7180;BME280;3631;42.152;24.756;2022-12-10T05:16:52;98827.22;;;8.91;100.00
7180;BME280;3631;42.152;24.756;2022-12-10T05:19:19;98823.66;;;8.94;100.00
7180;BME280;3631;42.152;24.756;2022-12-10T05:21:48;98825.34;;;8.95;100.00
7180;BME280;3631;42.152;24.756;2022-12-10T05:24:32;98827.09;;;8.94;100.00
7180;BME280;3631;42.152;24.756;2022-12-10T05:27:01;98822.75;;;8.95;100.00
7180;BME280;3631;42.152;24.756;2022-12-10T05:29:28;98819.50;;;8.90;100.00
7180;BME280;3631;42.152;24.756;2022-12-10T05:31:55;98793.72;;;8.87;100.00
7180;BME280;3631;42.152;24.756;2022-12-10T05:34:22;98830.13;;;8.81;100.00
7180;BME280;3631;42.152;24.756;2022-12-10T05:36:49;98812.75;;;8.84;100.00
7180;BME280;3631;42.152;24.756;2022-12-10T05:39:16;98825.69;;;8.84;100.00
7180;BME280;3631;42.152;24.756;2022-12-10T05:41:43;98825.38;;;8.93;100.00
7180;BME280;3631;42.152;24.756;2022-12-10T05:44:12;98816.72;;;8.94;100.00
7180;BME280;3631;42.152;24.756;2022-12-10T05:46:39;98816.84;;;8.91;100.00
7180;BME280;3631;42.152;24.756;2022-12-10T05:49:07;98814.50;;;8.84;100.00
7180;BME280;3631;42.152;24.756;2022-12-10T05:51:36;98802.00;;;8.96;100.00
7180;BME280;3631;42.152;24.756;2022-12-10T05:54:05;98803.44;;;9.05;100.00
7180;BME280;3631;42.152;24.756;2022-12-10T05:56:32;98811.06;;;9.09;100.00
7180;BME280;3631;42.152;24.756;2022-12-10T05:59:01;98802.91;;;8.95;100.00
7180;BME280;3631;42.152;24.756;2022-12-10T06:01:31;98790.72;;;8.99;100.00
7180;BME280;3631;42.152;24.756;2022-12-10T06:04:00;98805.03;;;9.09;100.00
7180;BME280;3631;42.152;24.756;2022-12-10T06:06:29;98800.25;;;8.97;100.00
7180;BME280;3631;42.152;24.756;2022-12-10T06:08:56;98804.22;;;9.07;100.00
7180;BME280;3631;42.152;24.756;2022-12-10T06:11:25;98799.84;;;9.09;100.00
7180;BME280;3631;42.152;24.756;2022-12-10T06:13:53;98791.19;;;9.10;100.00
7180;BME280;3631;42.152;24.756;2022-12-10T06:16:20;98797.63;;;9.23;100.00
7180;BME280;3631;42.152;24.756;2022-12-10T06:18:49;98799.34;;;9.24;100.00
7180;BME280;3631;42.152;24.756;2022-12-10T06:21:17;98787.53;;;9.16;100.00
7180;BME280;3631;42.152;24.756;2022-12-10T06:23:45;98790.81;;;9.21;100.00
7180;BME280;3631;42.152;24.756;2022-12-10T06:26:14;98796.84;;;9.21;100.00
7180;BME280;3631;42.152;24.756;2022-12-10T06:28:41;98792.22;;;9.29;100.00
7180;BME280;3631;42.152;24.756;2022-12-10T06:31:11;98798.06;;;9.36;100.00
7180;BME280;3631;42.152;24.756;2022-12-10T06:33:38;98783.13;;;9.42;100.00
7180;BME280;3631;42.152;24.756;2022-12-10T06:36:08;98800.97;;;9.50;100.00
7180;BME280;3631;42.152;24.756;2022-12-10T06:38:36;98802.53;;;9.56;100.00
7180;BME280;3631;42.152;24.756;2022-12-10T06:41:04;98810.41;;;9.53;100.00
7180;BME280;3631;42.152;24.756;2022-12-10T06:43:31;98809.59;;;9.51;100.00
7180;BME280;3631;42.152;24.756;2022-12-10T06:45:58;98808.59;;;9.55;100.00
7180;BME280;3631;42.152;24.756;2022-12-10T06:48:26;98803.53;;;9.52;100.00
7180;BME280;3631;42.152;24.756;2022-12-10T06:50:52;98809.13;;;9.39;100.00
7180;BME280;3631;42.152;24.756;2022-12-10T06:53:23;98794.50;;;9.38;100.00
7180;BME280;3631;42.152;24.756;2022-12-10T06:55:50;98812.81;;;9.34;100.00
7180;BME280;3631;42.152;24.756;2022-12-10T06:58:17;98815.06;;;9.43;100.00
7180;BME280;3631;42.152;24.756;2022-12-10T07:00:44;98810.28;;;9.56;100.00
7180;BME280;3631;42.152;24.756;2022-12-10T07:03:11;98799.81;;;9.59;100.00
7180;BME280;3631;42.152;24.756;2022-12-10T07:05:38;98803.47;;;9.53;100.00
7180;BME280;3631;42.152;24.756;2022-12-10T07:08:05;98811.38;;;9.48;100.00
7180;BME280;3631;42.152;24.756;2022-12-10T07:10:33;98809.13;;;9.39;100.00
7180;BME280;3631;42.152;24.756;2022-12-10T07:13:00;98819.78;;;9.32;100.00
7180;BME280;3631;42.152;24.756;2022-12-10T07:15:27;98822.03;;;9.41;100.00
7180;BME280;3631;42.152;24.756;2022-12-10T07:17:53;98802.91;;;9.45;100.00
7180;BME280;3631;42.152;24.756;2022-12-10T07:20:20;98793.16;;;9.52;100.00
7180;BME280;3631;42.152;24.756;2022-12-10T07:22:47;98795.25;;;9.65;100.00
7180;BME280;3631;42.152;24.756;2022-12-10T07:25:14;98803.63;;;9.72;100.00
7180;BME280;3631;42.152;24.756;2022-12-10T07:27:43;98799.00;;;9.81;100.00
7180;BME280;3631;42.152;24.756;2022-12-10T07:30:11;98793.50;;;9.89;100.00
7180;BME280;3631;42.152;24.756;2022-12-10T07:32:38;98785.03;;;9.84;100.00
7180;BME280;3631;42.152;24.756;2022-12-10T07:35:05;98789.53;;;9.80;100.00
7180;BME280;3631;42.152;24.756;2022-12-10T07:37:33;98786.97;;;9.79;100.00
7180;BME280;3631;42.152;24.756;2022-12-10T07:40:00;98790.22;;;9.84;100.00
7180;BME280;3631;42.152;24.756;2022-12-10T07:42:27;98787.38;;;9.92;100.00
7180;BME280;3631;42.152;24.756;2022-12-10T07:44:55;98799.59;;;9.88;100.00
7180;BME280;3631;42.152;24.756;2022-12-10T07:47:22;98787.78;;;9.81;100.00
7180;BME280;3631;42.152;24.756;2022-12-10T07:49:49;98781.91;;;9.76;100.00
7180;BME280;3631;42.152;24.756;2022-12-10T07:52:16;98784.44;;;9.77;100.00
7180;BME280;3631;42.152;24.756;2022-12-10T07:54:43;98781.06;;;9.75;100.00
7180;BME280;3631;42.152;24.756;2022-12-10T07:57:10;98782.66;;;9.79;100.00
7180;BME280;3631;42.152;24.756;2022-12-10T07:59:36;98782.59;;;9.81;100.00
7180;BME280;3631;42.152;24.756;2022-12-10T08:02:05;98794.56;;;9.83;100.00
7180;BME280;3631;42.152;24.756;2022-12-10T08:04:32;98789.13;;;9.91;100.00
7180;BME280;3631;42.152;24.756;2022-12-10T08:06:59;98803.78;;;9.92;100.00
7180;BME280;3631;42.152;24.756;2022-12-10T08:09:25;98798.59;;;9.92;100.00
7180;BME280;3631;42.152;24.756;2022-12-10T08:11:52;98791.06;;;9.84;100.00
7180;BME280;3631;42.152;24.756;2022-12-10T08:14:19;98784.44;;;9.77;100.00
7180;BME280;3631;42.152;24.756;2022-12-10T08:16:46;98779.31;;;9.76;100.00
7180;BME280;3631;42.152;24.756;2022-12-10T08:19:15;98781.16;;;9.72;100.00
7180;BME280;3631;42.152;24.756;2022-12-10T08:21:42;98780.59;;;9.64;100.00
7180;BME280;3631;42.152;24.756;2022-12-10T08:24:09;98782.84;;;9.73;100.00
7180;BME280;3631;42.152;24.756;2022-12-10T08:26:36;98788.53;;;9.83;100.00
7180;BME280;3631;42.152;24.756;2022-12-10T08:29:04;98800.19;;;9.95;100.00
7180;BME280;3631;42.152;24.756;2022-12-10T08:31:31;98787.75;;;10.04;100.00
7180;BME280;3631;42.152;24.756;2022-12-10T08:33:57;98775.34;;;10.12;100.00
7180;BME280;3631;42.152;24.756;2022-12-10T08:36:26;98758.44;;;10.02;100.00
7180;BME280;3631;42.152;24.756;2022-12-10T08:38:53;98759.50;;;10.20;100.00
7180;BME280;3631;42.152;24.756;2022-12-10T08:41:22;98747.22;;;10.25;100.00
7180;BME280;3631;42.152;24.756;2022-12-10T08:43:51;98750.28;;;10.35;100.00
7180;BME280;3631;42.152;24.756;2022-12-10T08:46:18;98756.78;;;10.23;100.00
7180;BME280;3631;42.152;24.756;2022-12-10T08:48:45;98755.38;;;10.14;100.00
7180;BME280;3631;42.152;24.756;2022-12-10T08:51:15;98755.50;;;10.11;100.00
7180;BME280;3631;42.152;24.756;2022-12-10T08:53:43;98760.47;;;10.16;100.00
7180;BME280;3631;42.152;24.756;2022-12-10T08:56:11;98754.94;;;10.27;100.00
7180;BME280;3631;42.152;24.756;2022-12-10T08:58:38;98754.25;;;10.43;100.00
7180;BME280;3631;42.152;24.756;2022-12-10T09:01:07;98752.41;;;10.67;100.00
7180;BME280;3631;42.152;24.756;2022-12-10T09:03:34;98753.59;;;10.80;100.00
7180;BME280;3631;42.152;24.756;2022-12-10T09:06:03;98744.81;;;10.83;100.00
7180;BME280;3631;42.152;24.756;2022-12-10T09:08:31;98746.50;;;11.04;100.00
7180;BME280;3631;42.152;24.756;2022-12-10T09:11:04;98730.97;;;11.23;100.00
7180;BME280;3631;42.152;24.756;2022-12-10T09:13:31;98722.38;;;11.21;100.00
7180;BME280;3631;42.152;24.756;2022-12-10T09:15:58;98728.72;;;11.34;100.00
7180;BME280;3631;42.152;24.756;2022-12-10T09:18:25;98724.56;;;11.50;100.00
7180;BME280;3631;42.152;24.756;2022-12-10T09:20:51;98709.03;;;11.49;100.00
7180;BME280;3631;42.152;24.756;2022-12-10T09:23:18;98688.72;;;11.57;100.00
7180;BME280;3631;42.152;24.756;2022-12-10T09:25:45;98691.13;;;11.61;100.00
7180;BME280;3631;42.152;24.756;2022-12-10T09:28:14;98690.50;;;11.75;100.00
7180;BME280;3631;42.152;24.756;2022-12-10T09:30:41;98697.09;;;11.82;100.00
7180;BME280;3631;42.152;24.756;2022-12-10T09:33:08;98680.44;;;11.86;100.00
7180;BME280;3631;42.152;24.756;2022-12-10T09:35:39;98679.00;;;12.17;100.00
7180;BME280;3631;42.152;24.756;2022-12-10T09:38:06;98676.47;;;12.15;100.00
7180;BME280;3631;42.152;24.756;2022-12-10T09:40:37;98671.13;;;12.18;100.00
7180;BME280;3631;42.152;24.756;2022-12-10T09:43:15;98666.81;;;12.34;100.00
7180;BME280;3631;42.152;24.756;2022-12-10T09:45:50;98662.06;;;12.25;100.00
7180;BME280;3631;42.152;24.756;2022-12-10T09:48:28;98662.31;;;12.38;100.00
7180;BME280;3631;42.152;24.756;2022-12-10T09:51:03;98662.78;;;12.46;100.00
7180;BME280;3631;42.152;24.756;2022-12-10T09:53:32;98664.00;;;12.39;100.00
7180;BME280;3631;42.152;24.756;2022-12-10T09:56:00;98641.56;;;12.19;100.00
7180;BME280;3631;42.152;24.756;2022-12-10T09:58:29;98642.03;;;12.27;100.00
7180;BME280;3631;42.152;24.756;2022-12-10T10:00:58;98642.63;;;12.32;100.00
7180;BME280;3631;42.152;24.756;2022-12-10T10:03:28;98643.84;;;12.43;100.00
7180;BME280;3631;42.152;24.756;2022-12-10T10:05:58;98628.63;;;12.35;100.00
7180;BME280;3631;42.152;24.756;2022-12-10T10:08:29;98625.56;;;12.44;100.00
7180;BME280;3631;42.152;24.756;2022-12-10T10:10:58;98619.94;;;12.19;100.00
7180;BME280;3631;42.152;24.756;2022-12-10T10:13:33;98632.44;;;12.11;100.00
7180;BME280;3631;42.152;24.756;2022-12-10T10:16:14;98621.19;;;11.93;100.00
7180;BME280;3631;42.152;24.756;2022-12-10T10:18:46;98616.06;;;12.09;100.00
7180;BME280;3631;42.152;24.756;2022-12-10T10:21:21;98615.09;;;12.11;100.00
7180;BME280;3631;42.152;24.756;2022-12-10T10:23:48;98608.66;;;12.01;100.00
7180;BME280;3631;42.152;24.756;2022-12-10T10:26:15;98608.13;;;12.12;100.00
7180;BME280;3631;42.152;24.756;2022-12-10T10:28:44;98614.00;;;11.98;100.00
7180;BME280;3631;42.152;24.756;2022-12-10T10:31:20;98596.94;;;12.10;100.00
7180;BME280;3631;42.152;24.756;2022-12-10T10:33:49;98604.31;;;12.36;100.00
7180;BME280;3631;42.152;24.756;2022-12-10T10:36:23;98597.78;;;12.45;100.00
7180;BME280;3631;42.152;24.756;2022-12-10T10:38:51;98599.16;;;12.52;100.00
7180;BME280;3631;42.152;24.756;2022-12-10T10:41:18;98586.38;;;12.47;100.00
7180;BME280;3631;42.152;24.756;2022-12-10T10:43:47;98554.13;;;12.17;100.00
7180;BME280;3631;42.152;24.756;2022-12-10T10:46:17;98583.19;;;12.25;100.00
7180;BME280;3631;42.152;24.756;2022-12-10T10:48:47;98586.47;;;12.28;100.00
7180;BME280;3631;42.152;24.756;2022-12-10T10:51:18;98567.72;;;12.22;100.00
7180;BME280;3631;42.152;24.756;2022-12-10T10:53:47;98554.06;;;12.18;100.00
7180;BME280;3631;42.152;24.756;2022-12-10T10:56:18;98545.84;;;12.26;100.00
7180;BME280;3631;42.152;24.756;2022-12-10T10:58:54;98529.78;;;12.18;100.00
7180;BME280;3631;42.152;24.756;2022-12-10T11:01:24;98559.06;;;12.21;100.00
7180;BME280;3631;42.152;24.756;2022-12-10T11:03:54;98565.66;;;12.28;100.00
7180;BME280;3631;42.152;24.756;2022-12-10T11:06:22;98556.31;;;12.24;100.00
7180;BME280;3631;42.152;24.756;2022-12-10T11:08:52;98557.38;;;12.20;100.00
7180;BME280;3631;42.152;24.756;2022-12-10T11:11:29;98551.59;;;12.15;100.00
7180;BME280;3631;42.152;24.756;2022-12-10T11:14:15;98545.53;;;11.97;100.00
7180;BME280;3631;42.152;24.756;2022-12-10T11:16:49;98535.63;;;12.06;100.00
7180;BME280;3631;42.152;24.756;2022-12-10T11:19:20;98526.34;;;12.17;100.00
7180;BME280;3631;42.152;24.756;2022-12-10T11:21:48;98530.78;;;12.15;100.00
7180;BME280;3631;42.152;24.756;2022-12-10T11:24:17;98533.69;;;12.26;100.00
7180;BME280;3631;42.152;24.756;2022-12-10T11:27:00;98528.94;;;12.17;100.00
7180;BME280;3631;42.152;24.756;2022-12-10T11:29:46;98532.91;;;12.24;100.00
7180;BME280;3631;42.152;24.756;2022-12-10T11:32:37;98528.13;;;12.17;100.00
7180;BME280;3631;42.152;24.756;2022-12-10T11:35:12;98523.50;;;12.22;100.00
7180;BME280;3631;42.152;24.756;2022-12-10T11:37:49;98515.94;;;12.17;100.00
7180;BME280;3631;42.152;24.756;2022-12-10T11:40:29;98488.84;;;12.21;100.00
7180;BME280;3631;42.152;24.756;2022-12-10T11:43:04;98485.09;;;12.27;100.00
7180;BME280;3631;42.152;24.756;2022-12-10T11:45:45;98485.00;;;12.28;100.00
7180;BME280;3631;42.152;24.756;2022-12-10T11:48:30;98475.88;;;12.37;100.00
7180;BME280;3631;42.152;24.756;2022-12-10T11:51:02;98475.63;;;12.42;100.00
7180;BME280;3631;42.152;24.756;2022-12-10T11:53:49;98474.84;;;12.24;100.00
7180;BME280;3631;42.152;24.756;2022-12-10T11:56:22;98469.72;;;12.22;100.00
7180;BME280;3631;42.152;24.756;2022-12-10T11:59:05;98469.22;;;12.31;100.00
7180;BME280;3631;42.152;24.756;2022-12-10T12:01:54;98465.47;;;12.37;100.00
7180;BME280;3631;42.152;24.756;2022-12-10T12:04:42;98461.88;;;12.40;100.00
7180;BME280;3631;42.152;24.756;2022-12-10T12:07:34;98451.28;;;12.43;100.00
7180;BME280;3631;42.152;24.756;2022-12-10T12:13:05;98451.31;;;12.58;100.00
7180;BME280;3631;42.152;24.756;2022-12-10T12:15:37;98455.38;;;12.64;100.00
7180;BME280;3631;42.152;24.756;2022-12-10T12:18:13;98444.69;;;12.68;100.00
7180;BME280;3631;42.152;24.756;2022-12-10T12:20:45;98430.25;;;12.63;100.00
7180;BME280;3631;42.152;24.756;2022-12-10T12:23:19;98418.25;;;12.60;100.00
7180;BME280;3631;42.152;24.756;2022-12-10T12:25:52;98420.00;;;12.60;100.00
7180;BME280;3631;42.152;24.756;2022-12-10T12:28:22;98423.53;;;12.59;100.00
7180;BME280;3631;42.152;24.756;2022-12-10T12:30:57;98427.97;;;12.57;100.00
7180;BME280;3631;42.152;24.756;2022-12-10T12:33:29;98423.19;;;12.65;100.00
7180;BME280;3631;42.152;24.756;2022-12-10T12:36:03;98434.13;;;12.71;100.00
7180;BME280;3631;42.152;24.756;2022-12-10T12:38:41;98430.50;;;12.74;100.00
7180;BME280;3631;42.152;24.756;2022-12-10T12:41:15;98419.25;;;12.73;100.00
7180;BME280;3631;42.152;24.756;2022-12-10T12:43:48;98429.59;;;12.75;100.00
7180;BME280;3631;42.152;24.756;2022-12-10T12:46:21;98417.03;;;12.66;100.00
7180;BME280;3631;42.152;24.756;2022-12-10T12:48:56;98416.38;;;12.47;100.00
7180;BME280;3631;42.152;24.756;2022-12-10T12:51:29;98406.47;;;12.53;100.00
7180;BME280;3631;42.152;24.756;2022-12-10T12:53:58;98406.66;;;12.50;100.00
7180;BME280;3631;42.152;24.756;2022-12-10T12:56:40;98419.91;;;12.46;100.00
7180;BME280;3631;42.152;24.756;2022-12-10T12:59:20;98425.09;;;12.46;100.00
7180;BME280;3631;42.152;24.756;2022-12-10T13:01:52;98426.78;;;12.47;100.00
7180;BME280;3631;42.152;24.756;2022-12-10T13:04:24;98436.97;;;12.51;100.00
7180;BME280;3631;42.152;24.756;2022-12-10T13:07:30;98421.16;;;12.54;100.00
7180;BME280;3631;42.152;24.756;2022-12-10T13:13:16;98391.88;;;12.51;100.00
7180;BME280;3631;42.152;24.756;2022-12-10T13:15:44;98406.16;;;12.59;100.00
7180;BME280;3631;42.152;24.756;2022-12-10T13:18:35;98375.81;;;12.43;100.00
7180;BME280;3631;42.152;24.756;2022-12-10T13:21:30;98405.88;;;12.48;100.00
7180;BME280;3631;42.152;24.756;2022-12-10T13:24:11;98405.19;;;12.45;100.00
7180;BME280;3631;42.152;24.756;2022-12-10T13:26:41;98404.88;;;12.51;100.00
7180;BME280;3631;42.152;24.756;2022-12-10T13:29:28;98406.47;;;12.53;100.00